CW6421 Weather Reports


time (UTC)temp
C
wind
direction
speed
KPH
gust
KPH
rain 1hr
cm
rain 24hr
cm
rain mn
cm
humidity
%
barometer
mb
20190420150408 20 354 8.0 12.9 0.00 0.00 0.00 30 1028.8
20190420143519 21 352 8.0 9.7 0.00 0.00 0.00 30 1029.0
20190420143411 21 352 8.0 9.7 0.00 0.00 0.00 30 1029.0
20190420140408 21 2 9.7 12.9 0.00 0.00 0.00 28 1029.3
20190420133505 20 3 9.7 12.9 0.00 0.00 0.00 28 1029.5
20190420133411 20 3 9.7 12.9 0.00 0.00 0.00 28 1029.5
20190420130412 20 358 9.7 12.9 0.00 0.00 0.00 29 1029.8
20190420123440 20 8 9.7 12.9 0.00 0.00 0.00 30 1030.1
20190420123409 20 8 9.7 12.9 0.00 0.00 0.00 30 1030.1
20190420120410 20 357 9.7 12.9 0.00 0.00 0.00 32 1030.4
20190420113410 19 12 9.7 12.9 0.00 0.00 0.00 32 1030.6
20190420110411 18 6 8.0 12.9 0.00 0.00 0.00 35 1030.8
20190420103408 17 4 8.0 12.9 0.00 0.00 0.00 39 1031.0
20190420100408 16 353 8.0 12.9 0.00 0.00 0.00 44 1031.3
20190420093448 15 349 8.0 9.7 0.00 0.00 0.00 48 1031.4
20190420093412 15 349 8.0 9.7 0.00 0.00 0.00 48 1031.4
20190420090537 14 345 6.4 9.7 0.00 0.00 0.00 50 1031.6
20190420090413 14 345 6.4 9.7 0.00 0.00 0.00 50 1031.6
20190420083414 13 354 6.4 9.7 0.00 0.00 0.00 54 1031.7
20190420080411 11 358 8.0 9.7 0.00 0.00 0.00 58 1031.8
20190420073412 10 358 8.0 9.7 0.00 0.00 0.00 62 1031.8
20190420070410 8 6 8.0 9.7 0.00 0.00 0.00 66 1031.8
20190420063412 8 357 6.4 9.7 0.00 0.00 0.00 69 1032.0
20190420060408 7 10 6.4 6.4 0.00 0.00 0.00 72 1032.0
20190420053408 6 12 6.4 6.4 0.00 0.00 0.00 73 1032.0
20190420050414 6 8 6.4 9.7 0.00 0.00 0.00 72 1031.9
20190420043407 6 9 6.4 9.7 0.00 0.00 0.00 70 1031.8
20190420040414 7 13 6.4 9.7 0.00 0.00 0.00 66 1031.8
20190420033409 7 13 6.4 9.7 0.00 0.00 0.00 63 1031.8
20190420030413 7 358 6.4 6.4 0.00 0.00 0.00 62 1031.8
20190420023410 7 359 4.8 6.4 0.00 0.00 0.00 61 1031.8
20190420020411 8 14 6.4 9.7 0.00 0.00 0.00 59 1031.9
20190420013409 8 15 6.4 9.7 0.00 0.00 0.00 57 1032.0
20190420010411 8 21 6.4 9.7 0.00 0.00 0.00 54 1032.1
20190420003410 9 16 9.7 12.9 0.00 0.00 0.00 53 1032.3
20190420000410 10 18 9.7 12.9 0.00 0.00 0.00 51 1032.4
20190419233411 10 25 9.7 12.9 0.00 0.00 0.00 48 1032.5
20190419230416 11 14 9.7 12.9 0.00 0.00 0.00 44 1032.5
20190419223515 11 13 9.7 12.9 0.00 0.00 0.00 41 1032.5
20190419223407 11 13 9.7 12.9 0.00 0.00 0.00 41 1032.5
20190419220414 12 16 9.7 12.9 0.00 0.00 0.00 38 1032.6
20190419213523 13 22 11.3 14.5 0.00 0.00 0.00 36 1032.6
20190419213415 13 22 11.3 14.5 0.00 0.00 0.00 36 1032.6
20190419210407 13 19 12.9 16.1 0.00 0.00 0.00 34 1032.6
20190419203414 14 21 12.9 16.1 0.00 0.00 0.00 33 1032.5
20190419200409 15 35 12.9 16.1 0.00 0.00 0.00 33 1032.5
20190419193409 16 38 12.9 16.1 0.00 0.00 0.00 33 1032.5
20190419190413 17 34 12.9 16.1 0.00 0.00 0.00 31 1032.4
20190419183409 17 39 12.9 16.1 0.00 0.00 0.00 31 1031.8
20190419180414 18 47 12.9 16.1 0.00 0.00 0.00 29 1031.6
20190419173411 19 49 12.9 16.1 0.00 0.00 0.00 29 1031.5
20190419170408 20 50 12.9 16.1 0.00 0.00 0.00 29 1031.5
20190419163414 21 44 12.9 16.1 0.00 0.00 0.00 28 1031.5
20190419160410 21 56 12.9 16.1 0.00 0.00 0.00 27 1031.5
20190419153511 21 51 14.5 19.3 0.00 0.00 0.00 26 1031.5
20190419153413 21 51 14.5 19.3 0.00 0.00 0.00 26 1031.5